Time;durP1;ratioP1;P1;durP2;ratioP2;P2;SDS_P1;SDS_P2;PMS_P1;PMS_P2;Temp;Humidity;BMP_temperature;BMP_pressure;BME280_temperature;BME280_humidity;BME280_pressure;Samples;Min_cycle;Max_cycle;Signal;HPM_P1;HPM_P2
2022/04/01 00:01:32;;;;;;;27.90;8.67;;;;;;;16.32;51.03;98580.98;123554;1102;104272;-79
2022/04/01 00:04:08;;;;;;;32.50;9.10;;;;;;;16.29;50.86;98592.48;123115;1102;104338;-78
2022/04/01 00:06:41;;;;;;;28.23;8.80;;;;;;;16.27;51.67;98604.88;123655;1102;104287;-79
2022/04/01 00:09:11;;;;;;;34.40;9.50;;;;;;;16.24;51.62;98588.20;123843;1105;104403;-79
2022/04/01 00:11:43;;;;;;;34.37;9.33;;;;;;;16.22;51.93;98589.98;123424;1102;104252;-78
2022/04/01 00:14:13;;;;;;;35.60;9.75;;;;;;;16.21;52.10;98593.55;123915;1102;104840;-78
2022/04/01 00:16:51;;;;;;;34.57;8.70;;;;;;;16.18;51.77;98582.09;124142;1105;104312;-77
2022/04/01 00:19:22;;;;;;;34.70;9.43;;;;;;;16.16;52.39;98575.96;123720;1102;110698;-78
2022/04/01 00:21:53;;;;;;;36.13;9.83;;;;;;;16.16;51.94;98572.45;123547;1105;104287;-79
2022/04/01 00:24:28;;;;;;;30.03;9.00;;;;;;;16.13;52.54;98581.31;124299;1102;104213;-78
2022/04/01 00:27:02;;;;;;;33.37;9.30;;;;;;;16.11;52.57;98583.12;124443;1105;104371;-78
2022/04/01 00:29:39;;;;;;;34.13;8.77;;;;;;;16.08;52.91;98600.80;123806;1102;104453;-77
2022/04/01 00:32:10;;;;;;;30.47;8.93;;;;;;;16.05;52.79;98599.09;124165;1102;104258;-77
2022/04/01 00:34:49;;;;;;;31.85;9.45;;;;;;;16.02;53.88;98596.50;124377;1103;104386;-77
2022/04/01 00:37:25;;;;;;;36.70;10.20;;;;;;;16.01;53.55;98588.59;124422;1105;104254;-78
2022/04/01 00:42:56;;;;;;;34.57;9.70;;;;;;;15.95;53.73;98565.75;123952;1105;104249;-78
2022/04/01 00:45:27;;;;;;;36.63;10.07;;;;;;;15.94;52.91;98569.28;123202;1105;104607;-79
2022/04/01 00:48:01;;;;;;;36.70;9.80;;;;;;;15.92;54.16;98565.80;123840;1105;105695;-79
2022/04/01 00:50:34;;;;;;;39.53;10.07;;;;;;;15.91;53.45;98556.11;123181;1105;104954;-78
2022/04/01 00:53:11;;;;;;;27.80;9.03;;;;;;;15.89;53.99;98553.48;123517;1106;104399;-78
2022/04/01 00:55:56;;;;;;;34.87;10.37;;;;;;;15.85;53.29;98540.34;124059;1105;105120;-77
2022/04/01 00:58:30;;;;;;;30.43;8.50;;;;;;;15.84;53.52;98533.33;124041;1102;104475;-77
2022/04/01 01:01:00;;;;;;;27.33;9.63;;;;;;;15.81;53.93;98539.53;123416;1105;104315;-78
2022/04/01 01:03:34;;;;;;;31.27;9.33;;;;;;;15.79;54.02;98559.85;124597;1102;104235;-77
2022/04/01 01:06:10;;;;;;;33.77;10.07;;;;;;;15.75;53.84;98558.11;124158;1105;104242;-77
2022/04/01 01:08:42;;;;;;;33.50;9.83;;;;;;;15.71;53.94;98546.72;124553;1105;104318;-77
2022/04/01 01:11:18;;;;;;;30.37;8.70;;;;;;;15.66;54.88;98560.90;123538;1102;104338;-78
2022/04/01 01:13:50;;;;;;;29.95;9.55;;;;;;;15.61;54.85;98553.05;123981;1103;104274;-78
2022/04/01 01:16:39;;;;;;;29.33;8.63;;;;;;;15.56;54.34;98553.11;124435;1102;104900;-77
2022/04/01 01:19:11;;;;;;;35.47;9.53;;;;;;;15.51;54.96;98560.25;123772;1102;104405;-79
2022/04/01 01:22:00;;;;;;;31.37;9.27;;;;;;;15.49;54.88;98550.59;123810;1103;104309;-78
2022/04/01 01:24:33;;;;;;;29.80;9.93;;;;;;;15.45;54.24;98552.41;124210;1105;104402;-79
2022/04/01 01:27:06;;;;;;;31.20;9.83;;;;;;;15.43;54.07;98563.01;123390;1102;104386;-78
2022/04/01 01:29:37;;;;;;;36.67;9.30;;;;;;;15.39;55.19;98557.80;123372;1102;104357;-79
2022/04/01 01:32:10;;;;;;;31.33;8.80;;;;;;;15.34;54.56;98552.58;123437;1102;104389;-75
2022/04/01 01:34:43;;;;;;;29.60;9.77;;;;;;;15.30;54.55;98553.50;123627;1105;104386;-78
2022/04/01 01:37:14;;;;;;;29.43;9.50;;;;;;;15.25;54.81;98557.98;123813;1102;104306;-80
2022/04/01 01:39:51;;;;;;;30.23;9.93;;;;;;;15.20;55.12;98543.98;123778;1105;104303;-78
2022/04/01 01:42:22;;;;;;;32.70;9.40;;;;;;;15.16;55.61;98552.84;123604;1105;118805;-79
2022/04/01 01:45:09;;;;;;;36.47;10.13;;;;;;;15.13;55.45;98555.52;124367;1105;104412;-78
2022/04/01 01:47:55;;;;;;;31.95;9.50;;;;;;;15.08;55.51;98545.02;124222;1105;104315;-78
2022/04/01 01:56:06;;;;;;;33.40;9.83;;;;;;;14.93;56.27;98540.84;124091;1105;104453;-78
2022/04/01 01:58:38;;;;;;;;;;;;;;;14.91;59.12;98542.60;124068;1105;104418;-78
2022/04/01 02:01:39;;;;;;;34.43;9.37;;;;;;;14.89;56.25;98536.48;124285;1105;104501;-76
2022/04/01 02:04:28;;;;;;;27.67;9.13;;;;;;;14.84;57.31;98531.25;124593;1105;104485;-77
2022/04/01 02:07:05;;;;;;;35.37;9.90;;;;;;;14.81;57.33;98527.79;124696;1105;104277;-77
2022/04/01 02:09:46;;;;;;;28.50;9.77;;;;;;;14.77;57.68;98521.66;124280;1105;104363;-77
2022/04/01 02:12:41;;;;;;;37.30;10.73;;;;;;;14.77;57.08;98523.43;123933;1105;104415;-77
2022/04/01 02:15:26;;;;;;;30.97;9.77;;;;;;;14.76;56.42;98514.65;123521;1105;104552;-77
2022/04/01 02:17:58;;;;;;;27.80;9.35;;;;;;;14.76;56.93;98513.75;123693;1104;104383;-78
2022/04/01 02:20:31;;;;;;;32.80;9.13;;;;;;;14.76;56.68;98521.67;123180;1105;104431;-79
2022/04/01 02:23:03;;;;;;;35.90;9.80;;;;;;;14.77;57.05;98518.15;123473;1105;104649;-79
2022/04/01 02:25:34;;;;;;;36.07;10.17;;;;;;;14.76;56.20;98516.39;123796;1105;104374;-79
2022/04/01 02:28:05;;;;;;;36.07;9.57;;;;;;;14.76;56.28;98519.03;123611;1105;104421;-79
2022/04/01 02:30:35;;;;;;;40.67;10.17;;;;;;;14.76;57.25;98521.67;122888;1102;104310;-80
2022/04/01 02:33:24;;;;;;;30.65;9.55;;;;;;;14.74;56.90;98511.17;124004;1103;104226;-80
2022/04/01 02:35:59;;;;;;;37.67;9.67;;;;;;;14.71;56.75;98506.79;123115;1103;104316;-79
2022/04/01 02:38:33;;;;;;;32.27;9.70;;;;;;;14.69;56.51;98494.49;123642;1102;104223;-76
2022/04/01 02:41:15;;;;;;;31.47;9.70;;;;;;;14.62;57.97;98477.87;124707;1105;104210;-77
2022/04/01 02:43:50;;;;;;;33.07;10.13;;;;;;;14.57;58.01;98487.59;124162;1105;104381;-77
2022/04/01 02:46:23;;;;;;;34.17;9.17;;;;;;;14.55;57.85;98497.27;124006;1105;104446;-77
2022/04/01 02:48:59;;;;;;;35.50;10.30;;;;;;;14.53;58.11;98514.90;123159;1105;104691;-79
2022/04/01 02:51:38;;;;;;;40.63;10.27;;;;;;;14.54;57.57;98528.08;122851;1105;104556;-80
2022/04/01 02:54:20;;;;;;;36.00;9.75;;;;;;;14.55;57.56;98528.94;122591;1109;104258;-79
2022/04/01 02:56:51;;;;;;;34.20;9.70;;;;;;;14.53;57.25;98518.40;122679;1109;104255;-80
2022/04/01 02:59:21;;;;;;;34.33;10.20;;;;;;;14.53;56.63;98501.70;122800;1105;104562;-79
2022/04/01 03:01:51;;;;;;;36.90;10.80;;;;;;;14.51;56.86;98499.08;123226;1105;104385;-79
2022/04/01 03:04:28;;;;;;;38.13;11.33;;;;;;;14.49;57.48;98497.34;123032;1108;104434;-78
2022/04/01 03:07:02;;;;;;;34.60;9.97;;;;;;;14.44;57.87;98491.26;123440;1105;104543;-78
2022/04/01 03:09:43;;;;;;;35.55;11.60;;;;;;;14.39;57.30;98489.53;123465;1105;104385;-79
2022/04/01 03:12:22;;;;;;;38.20;11.23;;;;;;;14.38;58.58;98501.00;123770;1105;104213;-78
2022/04/01 03:15:02;;;;;;;36.93;11.70;;;;;;;14.38;57.65;98508.02;123380;1105;104466;-78
2022/04/01 03:17:54;;;;;;;32.37;11.63;;;;;;;14.34;58.45;98494.00;123265;1105;104425;-77
2022/04/01 03:20:45;;;;;;;35.50;10.63;;;;;;;14.31;58.67;98495.81;123133;1105;104537;-79
2022/04/01 03:23:15;;;;;;;41.73;11.33;;;;;;;14.31;57.73;98490.54;122942;1105;104432;-78
2022/04/01 03:25:46;;;;;;;34.10;10.80;;;;;;;14.31;57.13;98501.95;122861;1104;104268;-80
2022/04/01 03:28:16;;;;;;;32.15;10.50;;;;;;;14.31;57.83;98509.87;122821;1102;104312;-80
2022/04/01 03:30:50;;;;;;;36.43;11.37;;;;;;;14.33;57.63;98504.58;122917;1105;104476;-79
2022/04/01 03:33:20;;;;;;;36.37;11.20;;;;;;;14.31;57.70;98504.59;122906;1102;104252;-79
2022/04/01 03:35:49;;;;;;;36.27;12.00;;;;;;;14.29;58.26;98506.38;122916;1105;104335;-79
2022/04/01 03:38:20;;;;;;;37.43;11.13;;;;;;;14.27;58.01;98494.95;123005;1102;104236;-80
2022/04/01 03:40:51;;;;;;;31.53;11.20;;;;;;;14.26;57.41;98502.89;122870;1102;104221;-79
2022/04/01 03:43:25;;;;;;;36.50;10.43;;;;;;;14.23;57.68;98503.81;123067;1105;104549;-79
2022/04/01 03:45:59;;;;;;;43.67;11.77;;;;;;;14.23;57.17;98510.83;123378;1103;104281;-79
2022/04/01 03:48:44;;;;;;;34.23;9.67;;;;;;;14.20;57.99;98509.98;122967;1103;104335;-80
2022/04/01 03:51:18;;;;;;;34.80;10.80;;;;;;;14.22;58.12;98509.97;123042;1102;104393;-78
2022/04/01 03:53:54;;;;;;;32.10;9.87;;;;;;;14.21;57.96;98502.97;123146;1105;104409;-80
2022/04/01 03:56:34;;;;;;;31.63;11.13;;;;;;;14.22;58.09;98504.69;123119;1105;104498;-78
2022/04/01 03:59:41;;;;;;;32.00;9.73;;;;;;;14.24;57.99;98497.63;122970;1102;104696;-81
2022/04/01 04:02:34;;;;;;;35.27;9.70;;;;;;;14.26;58.37;98497.61;122832;1105;104453;-80
2022/04/01 04:05:07;;;;;;;33.10;9.00;;;;;;;14.27;58.11;98497.59;122831;1102;104229;-80
2022/04/01 04:07:39;;;;;;;36.97;10.53;;;;;;;14.33;57.60;98500.16;122861;1102;104267;-80
2022/04/01 04:10:13;;;;;;;32.37;9.90;;;;;;;14.38;57.52;98506.28;122934;1105;104427;-80
2022/04/01 04:13:06;;;;;;;35.93;9.80;;;;;;;14.43;57.46;98497.41;122903;1105;104335;-80
2022/04/01 04:15:41;;;;;;;;;;;;;;;14.48;57.29;98514.09;123364;1102;104236;-79
2022/04/01 04:18:13;;;;;;;31.75;9.35;;;;;;;14.53;58.05;98515.77;123132;1102;104296;-77
2022/04/01 04:20:58;;;;;;;34.25;9.10;;;;;;;14.56;57.03;98515.73;123113;1102;104352;-78
2022/04/01 04:23:35;;;;;;;31.60;9.73;;;;;;;14.60;58.04;98506.06;123281;1105;104345;-79
2022/04/01 04:26:11;;;;;;;34.43;9.53;;;;;;;14.64;56.96;98505.11;122979;1102;104377;-79
2022/04/01 04:28:48;;;;;;;37.70;9.93;;;;;;;14.69;57.74;98510.33;122990;1105;104470;-80
2022/04/01 04:31:52;;;;;;;36.83;9.40;;;;;;;14.73;57.70;98506.77;122779;1102;104475;-79
2022/04/01 04:34:27;;;;;;;36.70;8.83;;;;;;;14.77;57.02;98508.45;122936;1105;104348;-79
2022/04/01 04:36:59;;;;;;;28.83;9.27;;;;;;;14.84;57.67;98512.77;123390;1105;104360;-78
2022/04/01 04:39:33;;;;;;;34.83;9.53;;;;;;;14.92;57.04;98505.61;123197;1105;104361;-78
2022/04/01 04:42:09;;;;;;;34.47;9.23;;;;;;;15.05;57.57;98508.98;123187;1105;104361;-78
2022/04/01 04:44:40;;;;;;;33.00;8.63;;;;;;;15.17;57.00;98512.33;122939;1105;104386;-78
2022/04/01 04:47:18;;;;;;;34.37;8.87;;;;;;;15.29;56.52;98512.14;123176;1105;104517;-79
2022/04/01 04:49:53;;;;;;;28.60;8.20;;;;;;;15.43;57.26;98510.16;122977;1105;104604;-78
2022/04/01 04:52:29;;;;;;;39.57;9.37;;;;;;;15.58;56.61;98513.44;123077;1105;104786;-79
2022/04/01 04:55:04;;;;;;;36.07;8.10;;;;;;;15.69;56.85;98527.38;122811;1105;104469;-79
2022/04/01 04:57:44;;;;;;;31.37;8.17;;;;;;;15.80;55.97;98528.09;123238;1105;104680;-78
2022/04/01 05:00:19;;;;;;;30.73;9.00;;;;;;;15.90;56.59;98539.38;123052;1105;104367;-78
2022/04/01 05:03:35;;;;;;;28.57;8.13;;;;;;;16.01;56.36;98522.45;122758;1105;104390;-78
2022/04/01 05:06:12;;;;;;;38.03;8.47;;;;;;;16.10;55.89;98527.59;122877;1105;104424;-78
2022/04/01 05:09:11;;;;;;;31.85;8.30;;;;;;;16.20;55.64;98523.84;122728;1105;104364;-79
2022/04/01 05:12:19;;;;;;;33.53;8.67;;;;;;;16.27;55.20;98521.98;123084;1105;104437;-80
2022/04/01 05:15:30;;;;;;;33.03;8.27;;;;;;;16.36;55.47;98527.06;123418;1106;104883;-79
2022/04/01 05:18:09;;;;;;;29.90;8.20;;;;;;;16.47;55.00;98537.45;123456;1105;104335;-79
2022/04/01 05:20:44;;;;;;;31.03;8.97;;;;;;;16.53;54.47;98538.22;122885;1105;104839;-78
2022/04/01 05:23:21;;;;;;;36.33;8.30;;;;;;;16.63;54.84;98533.61;123308;1105;104428;-78
2022/04/01 05:25:59;;;;;;;28.70;7.80;;;;;;;16.74;54.58;98540.47;123194;1105;104268;-79
2022/04/01 05:29:13;;;;;;;33.53;8.57;;;;;;;16.82;54.60;98544.69;123154;1105;118948;-79
2022/04/01 05:32:02;;;;;;;35.30;8.27;;;;;;;16.90;54.33;98531.31;124052;1106;104702;-79
2022/04/01 05:34:41;;;;;;;35.90;8.03;;;;;;;16.98;54.09;98539.96;123342;1105;104248;-78
2022/04/01 05:37:17;;;;;;;31.80;8.77;;;;;;;17.05;53.52;98538.07;123130;1105;104236;-77
2022/04/01 05:43:19;;;;;;;35.33;8.27;;;;;;;17.21;53.78;98533.30;126299;1105;102005;-78
2022/04/01 05:48:54;;;;;;;29.13;7.40;;;;;;;17.37;53.32;98525.85;125987;1105;101498;-78
2022/04/01 05:51:33;;;;;;;26.03;7.87;;;;;;;17.40;52.70;98504.57;125955;1106;101818;-78
2022/04/01 05:54:11;;;;;;;33.90;9.37;;;;;;;17.45;52.77;98507.97;126287;1105;101941;-79
2022/04/01 05:56:53;;;;;;;27.13;8.37;;;;;;;17.50;52.22;98521.13;125928;1105;102013;-80
2022/04/01 05:59:43;;;;;;;29.00;8.03;;;;;;;17.51;52.77;98507.83;126003;1105;102299;-79
2022/04/01 06:02:46;;;;;;;30.53;8.63;;;;;;;17.56;52.03;98521.87;125902;1105;101619;-78
2022/04/01 06:05:36;;;;;;;43.07;9.13;;;;;;;17.65;52.53;98504.84;125925;1109;102034;-80
2022/04/01 06:08:19;;;;;;;26.93;6.97;;;;;;;17.73;51.83;98499.34;125865;1109;101751;-78
2022/04/01 06:11:00;;;;;;;30.70;8.63;;;;;;;17.82;51.46;98498.25;125684;1109;102075;-78
2022/04/01 06:14:14;;;;;;;40.17;8.03;;;;;;;17.89;51.31;98497.23;125748;1105;101593;-79
2022/04/01 06:17:36;;;;;;;35.67;7.90;;;;;;;17.98;51.03;98488.99;125906;1109;101819;-78
2022/04/01 06:20:31;;;;;;;31.73;7.47;;;;;;;18.09;51.00;98501.98;125844;1105;110903;-79
2022/04/01 06:23:14;;;;;;;38.80;7.27;;;;;;;18.19;50.85;98489.35;125978;1105;101888;-78
2022/04/01 06:25:55;;;;;;;35.30;7.73;;;;;;;18.29;50.51;98491.71;126263;1105;103086;-78
2022/04/01 06:28:29;;;;;;;33.03;8.00;;;;;;;18.43;50.10;98493.09;125931;1105;101725;-79
2022/04/01 06:31:13;;;;;;;31.70;7.93;;;;;;;18.52;49.47;98494.63;126012;1105;101773;-79
2022/04/01 06:33:58;;;;;;;29.47;6.97;;;;;;;18.66;49.34;98505.72;126265;1105;101804;-78
2022/04/01 06:36:51;;;;;;;33.67;7.00;;;;;;;18.79;49.39;98501.80;126076;1105;101816;-80
2022/04/01 06:39:39;;;;;;;36.50;7.37;;;;;;;18.92;48.66;98497.01;125962;1105;103583;-81
2022/04/01 06:42:22;;;;;;;48.07;8.20;;;;;;;19.03;49.00;98494.88;126272;1105;101781;-80
2022/04/01 06:44:59;;;;;;;33.93;7.60;;;;;;;19.09;48.34;98492.94;126043;1105;101192;-81
2022/04/01 06:47:52;;;;;;;30.57;7.73;;;;;;;19.18;47.96;98498.87;126342;1101;101651;-78
2022/04/01 06:50:23;;;;;;;31.20;6.90;;;;;;;19.29;47.96;98493.22;126284;1102;101524;-78
2022/04/01 06:52:57;;;;;;;31.63;7.80;;;;;;;19.42;47.26;98488.36;126340;1102;103411;-78
2022/04/01 06:55:52;;;;;;;31.60;6.83;;;;;;;19.51;47.22;98479.19;126314;1102;101650;-78
2022/04/01 06:58:30;;;;;;;29.70;6.83;;;;;;;19.58;46.92;98478.94;126382;1102;101847;-80
2022/04/01 07:01:04;;;;;;;31.23;7.27;;;;;;;19.73;47.80;98479.38;126494;1101;101648;-78
2022/04/01 07:03:37;;;;;;;28.83;7.08;;;;;;;19.82;46.64;98481.75;126380;1102;101698;-79
2022/04/01 07:06:07;;;;;;;29.20;6.93;;;;;;;19.90;46.89;98479.69;126550;1102;101977;-78
2022/04/01 07:08:41;;;;;;;31.10;6.67;;;;;;;20.00;47.02;98485.55;126635;1101;101825;-78
2022/04/01 07:11:18;;;;;;;26.83;6.43;;;;;;;20.16;47.06;98482.35;126367;1102;102143;-78
2022/04/01 07:13:53;;;;;;;31.77;6.80;;;;;;;20.33;46.74;98482.61;126330;1102;102001;-79
2022/04/01 07:16:23;;;;;;;29.60;6.90;;;;;;;20.48;45.67;98476.72;126298;1105;101669;-77
2022/04/01 07:18:55;;;;;;;35.90;7.50;;;;;;;20.63;46.50;98487.73;126301;1102;102101;-80
2022/04/01 07:21:27;;;;;;;29.03;7.13;;;;;;;20.73;45.58;98486.50;126641;1101;101856;-79
2022/04/01 07:24:00;;;;;;;29.70;7.07;;;;;;;20.86;44.94;98484.23;126332;1105;101764;-80
2022/04/01 07:26:34;;;;;;;27.73;6.20;;;;;;;20.99;45.46;98485.50;126499;1101;101621;-78
2022/04/01 07:29:07;;;;;;;28.77;6.97;;;;;;;21.16;44.72;98481.28;126304;1102;101734;-79
2022/04/01 07:34:43;;;;;;;23.97;6.17;;;;;;;21.49;44.45;98479.10;126688;1101;101694;-79
2022/04/01 07:37:20;;;;;;;31.30;6.60;;;;;;;21.65;44.77;98481.99;126468;1102;101733;-78
2022/04/01 07:39:49;;;;;;;28.13;6.90;;;;;;;21.74;44.06;98472.75;126334;1102;101965;-78
2022/04/01 07:42:40;;;;;;;24.13;5.50;;;;;;;21.91;43.93;98477.37;126382;1102;101903;-78
2022/04/01 07:45:22;;;;;;;25.33;6.50;;;;;;;22.07;42.74;98465.07;126030;1105;101965;-76
2022/04/01 07:48:21;;;;;;;25.60;6.87;;;;;;;22.16;42.25;98469.16;126290;1105;101934;-78
2022/04/01 07:50:56;;;;;;;19.77;5.37;;;;;;;22.29;41.22;98457.92;126220;1105;101885;-79
2022/04/01 07:53:31;;;;;;;27.40;6.77;;;;;;;22.32;42.09;98461.34;126280;1105;101312;-79
2022/04/01 07:56:12;;;;;;;26.03;6.27;;;;;;;22.32;41.34;98456.00;126302;1105;101225;-80
2022/04/01 07:58:48;;;;;;;30.52;7.00;;;;;;;22.42;41.92;98454.67;126034;1105;101895;-79
2022/04/01 08:01:30;;;;;;;31.27;6.23;;;;;;;22.56;41.58;98462.06;126173;1105;101611;-79
2022/04/01 08:04:14;;;;;;;26.43;5.93;;;;;;;22.70;41.37;98460.53;126297;1105;101726;-79
2022/04/01 08:06:51;;;;;;;25.87;6.63;;;;;;;22.79;41.11;98452.08;126298;1105;101845;-83
2022/04/01 08:09:40;;;;;;;22.00;6.43;;;;;;;22.87;39.99;98457.93;126334;1105;101800;-79
2022/04/01 08:12:15;;;;;;;28.27;6.60;;;;;;;22.83;39.90;98461.70;126255;1105;101958;-80
2022/04/01 08:14:49;;;;;;;28.23;6.60;;;;;;;22.86;40.17;98456.22;126271;1105;102054;-81
2022/04/01 08:17:35;;;;;;;26.60;5.67;;;;;;;22.88;39.39;98458.81;126301;1105;101679;-83
2022/04/01 08:20:12;;;;;;;29.63;5.93;;;;;;;22.99;39.54;98453.81;125997;1105;101793;-81
2022/04/01 08:22:45;;;;;;;25.87;6.23;;;;;;;23.12;39.19;98443.42;126330;1102;101735;-78
2022/04/01 08:25:16;;;;;;;23.43;6.00;;;;;;;23.28;39.32;98440.86;126314;1102;102080;-77
2022/04/01 08:27:49;;;;;;;23.83;6.23;;;;;;;23.33;39.08;98437.02;126320;1105;102020;-77
2022/04/01 08:30:23;;;;;;;26.00;6.43;;;;;;;23.39;38.61;98445.68;126564;1101;101541;-78
2022/04/01 08:32:56;;;;;;;24.67;5.70;;;;;;;23.38;38.29;98428.77;126294;1104;101671;-79
2022/04/01 08:35:28;;;;;;;25.07;6.50;;;;;;;23.50;38.49;98435.33;126364;1105;101163;-79
2022/04/01 08:38:09;;;;;;;28.37;5.60;;;;;;;23.59;38.48;98437.55;127280;1101;103162;-78
2022/04/01 08:40:40;;;;;;;27.63;6.47;;;;;;;23.69;38.32;98436.11;126591;1101;101502;-77
2022/04/01 08:43:25;;;;;;;29.83;6.90;;;;;;;23.71;37.95;98429.83;126299;1103;101816;-77
2022/04/01 08:49:34;;;;;;;30.57;6.23;;;;;;;23.68;36.86;98423.69;126654;1101;101643;-78
2022/04/01 08:52:06;;;;;;;28.50;6.20;;;;;;;23.69;37.32;98412.02;126846;1102;101931;-78
2022/04/01 08:54:38;;;;;;;27.20;6.10;;;;;;;23.72;36.36;98412.80;127142;1101;101758;-77
2022/04/01 08:57:10;;;;;;;26.00;5.73;;;;;;;23.77;36.83;98414.30;126330;1102;101661;-80
2022/04/01 08:59:43;;;;;;;25.27;5.83;;;;;;;23.85;36.96;98406.76;126367;1102;101658;-79
2022/04/01 09:02:19;;;;;;;24.23;6.00;;;;;;;23.90;36.80;98406.52;126363;1102;101657;-79
2022/04/01 09:05:05;;;;;;;28.23;6.13;;;;;;;23.97;36.58;98405.27;126318;1103;118967;-80
2022/04/01 09:07:40;;;;;;;27.10;6.67;;;;;;;24.12;36.57;98408.07;126444;1101;101600;-79
2022/04/01 09:10:14;;;;;;;24.10;6.43;;;;;;;24.18;36.14;98405.95;126410;1102;101653;-81
2022/04/01 09:12:56;;;;;;;25.68;6.67;;;;;;;24.34;35.10;98414.03;126327;1101;101724;-80
2022/04/01 09:15:44;;;;;;;24.73;6.00;;;;;;;24.43;34.96;98409.11;126343;1102;101748;-79
2022/04/01 09:18:38;;;;;;;27.67;6.00;;;;;;;24.45;34.88;98401.84;126339;1102;102918;-80
2022/04/01 09:21:20;;;;;;;;;;;;;;;;;;;;;
2022/04/01 09:24:30;;;;;;;22.60;5.80;;;;;;;24.40;35.31;98397.61;126444;1102;101927;-81
2022/04/01 09:27:34;;;;;;;26.80;7.30;;;;;;;24.48;35.48;98398.98;126661;1102;101593;-79
2022/04/01 09:30:12;;;;;;;24.40;6.60;;;;;;;24.53;35.07;98415.71;126394;1102;101652;-80
2022/04/01 09:33:04;;;;;;;22.43;8.17;;;;;;;24.50;34.58;98407.84;126253;1102;102729;-80
2022/04/01 09:35:45;;;;;;;21.70;8.30;;;;;;;24.53;34.87;98410.34;126659;1102;108345;-81
2022/04/01 09:38:24;;;;;;;30.03;8.27;;;;;;;24.57;34.77;98406.56;126430;1102;101251;-80
2022/04/01 09:41:00;;;;;;;28.60;8.00;;;;;;;24.60;34.23;98397.50;126278;1105;101726;-82
2022/04/01 09:43:39;;;;;;;25.13;7.10;;;;;;;24.64;34.51;98404.43;126338;1102;101141;-82
2022/04/01 09:46:31;;;;;;;30.57;8.00;;;;;;;24.68;34.04;98401.50;126299;1103;120469;-79
2022/04/01 09:49:34;;;;;;;31.40;8.37;;;;;;;24.65;34.22;98396.30;126249;1103;101823;-80
2022/04/01 09:52:09;;;;;;;22.30;6.30;;;;;;;24.63;34.06;98398.18;126586;1101;101649;-81
2022/04/01 09:54:52;;;;;;;24.17;5.80;;;;;;;24.67;33.94;98398.90;126378;1102;101740;-80
2022/04/01 09:57:24;;;;;;;;;;;;;;;24.71;34.20;98390.59;126416;1102;101588;-80
2022/04/01 10:00:15;;;;;;;23.80;5.73;;;;;;;24.80;33.73;98391.02;126328;1105;103623;-79
2022/04/01 10:02:49;;;;;;;20.90;5.47;;;;;;;24.85;33.56;98381.74;126265;1102;101830;-79
2022/04/01 10:05:19;;;;;;;24.25;6.00;;;;;;;24.82;33.23;98386.42;126289;1102;101654;-78
2022/04/01 10:07:54;;;;;;;25.55;5.85;;;;;;;24.81;33.51;98379.32;126248;1102;112528;-79
2022/04/01 10:10:26;;;;;;;25.10;6.13;;;;;;;24.87;33.18;98374.50;126378;1101;102280;-78
2022/04/01 10:13:01;;;;;;;23.27;6.20;;;;;;;24.84;33.26;98369.30;126303;1102;103023;-78
2022/04/01 10:15:45;;;;;;;26.03;5.53;;;;;;;25.02;33.14;98364.69;126405;1102;101680;-78
2022/04/01 10:18:22;;;;;;;22.50;5.87;;;;;;;25.05;33.01;98353.78;126323;1101;101716;-78
2022/04/01 10:20:54;;;;;;;22.90;5.97;;;;;;;25.04;33.36;98354.76;126466;1102;101949;-78
2022/04/01 10:23:31;;;;;;;24.50;6.10;;;;;;;25.11;32.97;98345.38;126351;1102;101697;-77
2022/04/01 10:26:06;;;;;;;22.73;5.67;;;;;;;25.11;32.82;98342.69;126322;1102;101916;-78
2022/04/01 10:28:37;;;;;;;20.63;4.70;;;;;;;25.18;32.63;98334.28;126288;1105;107035;-77
2022/04/01 10:31:18;;;;;;;19.47;4.20;;;;;;;25.29;32.21;98335.42;126428;1101;101703;-77
2022/04/01 10:33:54;;;;;;;18.43;3.90;;;;;;;25.42;31.94;98335.55;126501;1101;101627;-78
2022/04/01 10:36:33;;;;;;;16.77;4.10;;;;;;;25.45;31.67;98331.83;126282;1102;102028;-77
2022/04/01 10:39:05;;;;;;;20.80;4.60;;;;;;;25.51;31.53;98330.58;126377;1101;118469;-77
2022/04/01 10:41:38;;;;;;;22.25;4.22;;;;;;;25.51;30.83;98318.04;126346;1102;101883;-79
2022/04/01 10:44:40;;;;;;;17.17;4.67;;;;;;;25.40;31.45;98340.16;126431;1101;101735;-79
2022/04/01 10:47:14;;;;;;;16.80;3.77;;;;;;;25.40;31.05;98336.59;126412;1102;101785;-80
2022/04/01 10:53:37;;;;;;;22.43;4.33;;;;;;;25.53;30.56;98328.69;126410;1102;101999;-77
2022/04/01 10:56:28;;;;;;;19.27;3.97;;;;;;;25.52;31.04;98319.75;126627;1102;101706;-78
2022/04/01 10:59:09;;;;;;;17.93;4.30;;;;;;;25.48;30.95;98327.13;126423;1102;101869;-78
2022/04/01 11:01:49;;;;;;;17.20;4.70;;;;;;;25.68;30.82;98319.70;126456;1102;101838;-79
2022/04/01 11:04:32;;;;;;;17.30;4.90;;;;;;;25.88;30.69;98314.91;126380;1102;101701;-79
2022/04/01 11:07:05;;;;;;;22.37;5.40;;;;;;;26.00;30.12;98320.41;126567;1101;102461;-78
2022/04/01 11:09:45;;;;;;;22.50;5.43;;;;;;;25.96;30.61;98309.91;127062;1101;101457;-80
2022/04/01 11:13:22;;;;;;;20.93;4.70;;;;;;;26.03;30.57;98303.23;126307;1105;101283;-81
2022/04/01 11:16:28;;;;;;;21.73;5.33;;;;;;;26.13;30.08;98307.09;126020;1105;101648;-80
2022/04/01 11:19:35;;;;;;;27.77;6.17;;;;;;;26.18;29.83;98302.27;126231;1105;101746;-80
2022/04/01 11:22:42;;;;;;;20.27;5.47;;;;;;;26.23;29.79;98295.75;126012;1105;101949;-80
2022/04/01 11:25:54;;;;;;;22.40;4.90;;;;;;;26.27;29.79;98299.95;126258;1105;101812;-79
2022/04/01 11:28:31;;;;;;;24.20;5.33;;;;;;;26.30;29.83;98292.58;126351;1105;101781;-79
2022/04/01 11:31:12;;;;;;;20.87;5.47;;;;;;;26.46;29.48;98287.06;126301;1105;112014;-79
2022/04/01 11:34:01;;;;;;;19.57;5.43;;;;;;;26.62;29.64;98278.00;126828;1101;101585;-79
2022/04/01 11:36:33;;;;;;;24.07;5.73;;;;;;;26.68;29.77;98283.86;126420;1102;102339;-79
2022/04/01 11:39:10;;;;;;;22.60;5.13;;;;;;;26.64;29.55;98281.44;126296;1105;101495;-80
2022/04/01 11:41:48;;;;;;;24.83;5.30;;;;;;;26.61;29.56;98281.64;127200;1101;101438;-79
2022/04/01 11:44:18;;;;;;;28.70;5.83;;;;;;;26.62;29.28;98286.06;126939;1102;101681;-79
2022/04/01 11:46:59;;;;;;;23.00;5.00;;;;;;;26.61;28.85;98287.02;126364;1102;101848;-80
2022/04/01 11:49:29;;;;;;;25.43;4.93;;;;;;;26.49;29.33;98278.80;126590;1102;103816;-79
2022/04/01 11:52:00;;;;;;;22.33;5.20;;;;;;;26.49;29.19;98265.36;126629;1101;108163;-79
2022/04/01 11:54:34;;;;;;;28.00;5.60;;;;;;;26.47;28.94;98261.88;126358;1102;101678;-81
2022/04/01 11:57:10;;;;;;;24.40;6.10;;;;;;;26.37;28.52;98264.31;126465;1101;101671;-79
2022/04/01 11:59:41;;;;;;;25.03;5.87;;;;;;;26.29;29.07;98255.05;126525;1101;101629;-79
2022/04/01 12:02:16;;;;;;;26.50;5.87;;;;;;;26.29;29.05;98253.20;126335;1102;119421;-79
2022/04/01 12:04:58;;;;;;;21.47;4.77;;;;;;;26.31;29.32;98245.04;126290;1102;101634;-78
2022/04/01 12:10:28;;;;;;;25.93;6.93;;;;;;;26.19;29.17;98239.50;126290;1105;101655;-77
2022/04/01 12:13:00;;;;;;;24.70;5.57;;;;;;;26.18;29.20;98250.35;127261;1101;101510;-78
2022/04/01 12:15:34;;;;;;;24.90;5.90;;;;;;;26.22;29.14;98234.88;127113;1101;101960;-79
2022/04/01 12:18:06;;;;;;;22.90;4.80;;;;;;;26.26;28.83;98236.42;127217;1101;101616;-78
2022/04/01 12:20:41;;;;;;;19.57;4.97;;;;;;;26.27;29.29;98232.75;126293;1102;101738;-79
2022/04/01 12:23:15;;;;;;;22.13;5.63;;;;;;;26.07;28.76;98253.73;126355;1102;101667;-79
2022/04/01 12:25:47;;;;;;;28.70;5.43;;;;;;;25.92;29.15;98238.55;126320;1102;101733;-79
2022/04/01 12:28:19;;;;;;;27.83;5.67;;;;;;;25.94;29.51;98240.16;126315;1102;101980;-78
2022/04/01 12:30:54;;;;;;;24.00;5.13;;;;;;;25.93;29.38;98229.50;126279;1101;101825;-80
2022/04/01 12:33:24;;;;;;;;;;;;;;;25.80;28.46;98224.05;126518;1102;101618;-78
2022/04/01 12:36:02;;;;;;;24.70;5.70;;;;;;;25.82;28.81;98223.01;126334;1102;101658;-80